createdAt,value
2022-11-12T00:00:39.407Z,21.23
2022-11-12T00:03:09.708Z,23.63
2022-11-12T00:05:40.078Z,22.95
2022-11-12T00:08:16.230Z,21.27
2022-11-12T00:10:46.625Z,22.58
2022-11-12T00:13:17.194Z,18.13
2022-11-12T00:15:49.784Z,20.75
2022-11-12T00:18:19.704Z,19.48
2022-11-12T00:20:49.733Z,20.63
2022-11-12T00:23:19.729Z,21.50
2022-11-12T00:25:49.651Z,20.73
2022-11-12T00:28:19.543Z,22.40
2022-11-12T00:30:49.425Z,18.60
2022-11-12T00:33:19.292Z,17.13
2022-11-12T00:35:50.594Z,20.67
2022-11-12T00:38:20.596Z,18.25
2022-11-12T00:40:50.474Z,19.70
2022-11-12T00:43:20.615Z,19.25
2022-11-12T00:45:50.158Z,20.42
2022-11-12T00:48:19.672Z,19.80
2022-11-12T00:50:49.326Z,18.90
2022-11-12T00:53:19.629Z,21.90
2022-11-12T00:55:49.152Z,24.83
2022-11-12T00:58:18.649Z,27.25
2022-11-12T01:00:48.202Z,24.13
2022-11-12T01:03:17.812Z,21.67
2022-11-12T01:05:47.395Z,19.17
2022-11-12T01:08:16.891Z,21.40
2022-11-12T01:10:46.483Z,21.38
2022-11-12T01:13:16.272Z,20.20
2022-11-12T01:15:45.811Z,24.17
2022-11-12T01:18:15.914Z,24.73
2022-11-12T01:20:45.590Z,21.42
2022-11-12T01:23:15.121Z,21.10
2022-11-12T01:25:44.630Z,18.77
2022-11-12T01:28:14.428Z,25.17
2022-11-12T01:30:43.911Z,20.35
2022-11-12T01:33:13.399Z,20.48
2022-11-12T01:35:42.952Z,21.30
2022-11-12T01:38:12.446Z,18.02
2022-11-12T01:40:41.943Z,18.83
2022-11-12T01:43:15.511Z,20.33
2022-11-12T01:45:48.802Z,20.75
2022-11-12T01:48:30.703Z,20.35
2022-11-12T01:51:00.887Z,17.83
2022-11-12T01:53:35.161Z,20.67
2022-11-12T01:56:07.603Z,16.83
2022-11-12T01:58:40.555Z,19.85
2022-11-12T02:01:10.584Z,16.38
2022-11-12T02:03:40.502Z,19.90
2022-11-12T02:06:15.241Z,17.25
2022-11-12T02:08:46.535Z,16.70
2022-11-12T02:11:19.386Z,16.10
2022-11-12T02:14:00.367Z,17.80
2022-11-12T02:16:38.618Z,16.70
2022-11-12T02:19:15.038Z,18.48
2022-11-12T02:21:45.695Z,22.38
2022-11-12T02:24:35.683Z,16.38
2022-11-12T02:27:08.015Z,20.00
2022-11-12T02:29:37.997Z,15.93
2022-11-12T02:32:08.006Z,15.45
2022-11-12T02:34:37.947Z,15.27
2022-11-12T02:37:08.587Z,15.88
2022-11-12T02:39:38.437Z,19.17
2022-11-12T02:42:08.436Z,17.13
2022-11-12T02:44:38.552Z,19.48
2022-11-12T02:47:09.020Z,18.52
2022-11-12T02:49:38.951Z,13.00
2022-11-12T02:52:08.974Z,14.18
2022-11-12T02:54:39.553Z,14.80
2022-11-12T02:57:09.490Z,17.50
2022-11-12T02:59:39.425Z,14.25
2022-11-12T03:02:09.597Z,13.23
2022-11-12T03:04:40.974Z,13.93
2022-11-12T03:07:13.860Z,11.02
2022-11-12T03:09:44.378Z,15.68
2022-11-12T03:12:14.826Z,12.07
2022-11-12T03:14:45.340Z,14.27
2022-11-12T03:17:15.808Z,11.20
2022-11-12T03:19:46.240Z,14.50
2022-11-12T03:22:16.694Z,16.95
2022-11-12T03:24:49.960Z,13.18
2022-11-12T03:27:20.503Z,12.60
2022-11-12T03:29:50.957Z,12.52
2022-11-12T03:32:21.363Z,10.02
2022-11-12T03:34:55.292Z,8.50
2022-11-12T03:37:26.112Z,10.02
2022-11-12T03:39:56.552Z,11.05
2022-11-12T03:42:27.119Z,11.27
2022-11-12T03:44:57.219Z,10.32
2022-11-12T03:47:30.327Z,10.27
2022-11-12T03:50:00.492Z,12.55
2022-11-12T03:52:30.574Z,10.13
2022-11-12T03:55:02.106Z,8.05
2022-11-12T03:57:32.195Z,9.98
2022-11-12T04:00:02.227Z,10.93
2022-11-12T04:02:38.936Z,14.23
2022-11-12T04:05:32.335Z,9.65
2022-11-12T04:08:34.173Z,9.70
2022-11-12T04:11:05.879Z,9.23
2022-11-12T04:13:35.807Z,8.70
2022-11-12T04:16:35.040Z,7.22
2022-11-12T04:19:25.901Z,7.85
2022-11-12T04:21:59.191Z,10.45
2022-11-12T04:24:59.680Z,10.48
2022-11-12T04:27:33.197Z,9.90
2022-11-12T04:30:22.596Z,10.63
2022-11-12T04:32:58.453Z,10.75
2022-11-12T04:35:29.640Z,8.23
2022-11-12T04:37:59.203Z,8.35
2022-11-12T04:40:49.390Z,12.80
2022-11-12T04:43:39.979Z,10.98
2022-11-12T04:46:09.627Z,9.77
2022-11-12T04:48:39.179Z,10.13
2022-11-12T04:51:28.669Z,8.18
2022-11-12T04:53:58.735Z,9.25
2022-11-12T04:56:28.535Z,8.10
2022-11-12T04:58:58.064Z,11.07
2022-11-12T05:01:27.870Z,10.60
2022-11-12T05:03:57.400Z,7.80
2022-11-12T05:06:46.636Z,8.38
2022-11-12T05:09:16.187Z,7.07
2022-11-12T05:11:46.114Z,8.70
2022-11-12T05:14:16.045Z,9.38
2022-11-12T05:16:46.258Z,7.97
2022-11-12T05:19:15.850Z,11.27
2022-11-12T05:22:05.261Z,9.38
2022-11-12T05:24:42.575Z,9.70
2022-11-12T05:27:16.010Z,11.82
2022-11-12T05:29:45.797Z,12.95
2022-11-12T05:32:17.275Z,8.77
2022-11-12T05:34:47.268Z,13.30
2022-11-12T05:37:18.877Z,9.63
2022-11-12T05:39:53.150Z,9.07
2022-11-12T05:42:23.773Z,8.07
2022-11-12T05:44:56.785Z,8.05
2022-11-12T05:47:26.358Z,9.77
2022-11-12T05:49:55.970Z,10.60
2022-11-12T05:52:25.986Z,13.00
2022-11-12T05:54:55.568Z,8.40
2022-11-12T05:57:25.979Z,8.95
2022-11-12T05:59:55.511Z,8.02
2022-11-12T06:02:25.259Z,10.18
2022-11-12T06:04:55.138Z,6.90
2022-11-12T06:07:25.403Z,7.07
2022-11-12T06:09:55.006Z,6.07
2022-11-12T06:12:24.517Z,8.15
2022-11-12T06:14:54.211Z,7.53
2022-11-12T06:17:23.988Z,7.95
2022-11-12T06:19:53.864Z,8.68
2022-11-12T06:22:23.869Z,11.13
2022-11-12T06:24:54.185Z,11.98
2022-11-12T06:27:25.709Z,8.95
2022-11-12T06:29:55.668Z,10.52
2022-11-12T06:32:29.972Z,11.65
2022-11-12T06:35:03.153Z,8.52
2022-11-12T06:37:33.123Z,9.25
2022-11-12T06:40:03.033Z,8.57
2022-11-12T06:42:33.312Z,9.38
2022-11-12T06:45:04.733Z,7.72
2022-11-12T06:47:34.743Z,7.15
2022-11-12T06:50:04.721Z,7.68
2022-11-12T06:52:34.666Z,6.88
2022-11-12T06:55:06.574Z,9.10
2022-11-12T06:57:38.020Z,7.38
2022-11-12T07:00:08.582Z,8.63
2022-11-12T07:02:39.151Z,8.00
2022-11-12T07:05:09.538Z,9.20
2022-11-12T07:07:39.459Z,6.38
2022-11-12T07:10:09.932Z,8.85
2022-11-12T07:12:39.907Z,8.55
2022-11-12T07:15:09.854Z,7.50
2022-11-12T07:17:39.476Z,5.25
2022-11-12T07:20:10.024Z,7.38
2022-11-12T07:22:39.553Z,5.85
2022-11-12T07:25:09.429Z,9.20
2022-11-12T07:27:39.043Z,7.65
2022-11-12T07:30:09.241Z,5.72
2022-11-12T07:32:43.995Z,9.65
2022-11-12T07:35:15.564Z,8.00
2022-11-12T07:37:45.157Z,4.70
2022-11-12T07:40:15.035Z,6.78
2022-11-12T07:42:45.212Z,7.68
2022-11-12T07:45:15.173Z,7.07
2022-11-12T07:47:45.006Z,12.00
2022-11-12T07:50:17.845Z,6.55
2022-11-12T07:52:47.513Z,4.25
2022-11-12T07:55:17.107Z,6.10
2022-11-12T07:57:46.749Z,4.55
2022-11-12T08:00:17.539Z,5.18
2022-11-12T08:02:47.211Z,6.97
2022-11-12T08:05:21.115Z,4.13
2022-11-12T08:07:51.095Z,4.85
2022-11-12T08:10:20.719Z,5.18
2022-11-12T08:12:50.716Z,4.78
2022-11-12T08:15:20.789Z,6.70
2022-11-12T08:17:50.818Z,5.43
2022-11-12T08:20:20.832Z,4.85
2022-11-12T08:22:50.818Z,6.25
2022-11-12T08:25:20.837Z,9.45
2022-11-12T08:27:50.840Z,5.32
2022-11-12T08:30:20.453Z,4.45
2022-11-12T08:32:50.313Z,5.63
2022-11-12T08:35:20.024Z,4.32
2022-11-12T08:37:49.681Z,5.00
2022-11-12T08:40:19.328Z,5.25
2022-11-12T08:42:49.249Z,4.50
2022-11-12T08:45:18.879Z,4.38
2022-11-12T08:47:48.380Z,6.38
2022-11-12T08:50:21.295Z,4.75
2022-11-12T08:52:50.849Z,6.30
2022-11-12T08:55:20.630Z,6.53
2022-11-12T08:57:50.169Z,9.10
2022-11-12T09:00:20.218Z,4.38
2022-11-12T09:02:49.769Z,4.22
2022-11-12T09:05:19.394Z,3.90
2022-11-12T09:07:50.699Z,5.65
2022-11-12T09:10:20.675Z,8.55
2022-11-12T09:12:54.123Z,5.85
2022-11-12T09:15:40.206Z,4.85
2022-11-12T09:18:16.345Z,5.25
2022-11-12T09:20:46.906Z,8.13
2022-11-12T09:23:19.597Z,6.88
2022-11-12T09:25:49.166Z,6.93
2022-11-12T09:28:21.227Z,5.18
2022-11-12T09:30:52.700Z,6.10
2022-11-12T09:33:33.870Z,7.45
2022-11-12T09:36:04.641Z,4.35
2022-11-12T09:38:34.716Z,6.00
2022-11-12T09:41:30.283Z,6.40
2022-11-12T09:44:04.821Z,9.00
2022-11-12T09:47:01.855Z,8.90
2022-11-12T09:49:38.035Z,6.90
2022-11-12T09:52:18.614Z,15.75
2022-11-12T09:54:52.424Z,8.63
2022-11-12T09:57:22.383Z,6.55
2022-11-12T09:59:52.341Z,7.78
2022-11-12T10:02:37.893Z,3.45
2022-11-12T10:05:34.747Z,5.07
2022-11-12T10:08:43.486Z,3.70
2022-11-12T10:12:11.757Z,7.75
2022-11-12T10:15:40.020Z,6.45
2022-11-12T10:18:48.716Z,5.90
2022-11-12T10:21:36.661Z,5.35
2022-11-12T10:24:10.291Z,10.05
2022-11-12T10:26:41.586Z,8.10
2022-11-12T10:29:36.863Z,5.30
2022-11-12T10:32:06.879Z,6.10
2022-11-12T10:34:37.622Z,11.20
2022-11-12T10:37:46.462Z,13.45
2022-11-12T10:40:32.851Z,7.85
2022-11-12T10:43:08.015Z,7.72
2022-11-12T10:45:38.070Z,8.70
2022-11-12T10:48:26.826Z,6.68
2022-11-12T10:50:57.899Z,7.43
2022-11-12T10:53:40.153Z,6.90
2022-11-12T10:56:33.529Z,10.35
2022-11-12T10:59:23.746Z,8.27
2022-11-12T11:02:02.052Z,9.18
2022-11-12T11:04:37.131Z,9.70
2022-11-12T11:07:26.522Z,13.35
2022-11-12T11:10:02.087Z,14.40
2022-11-12T11:12:35.338Z,8.73
2022-11-12T11:15:25.791Z,5.50
2022-11-12T11:17:55.795Z,6.78
2022-11-12T11:20:52.228Z,7.65
2022-11-12T11:23:33.063Z,14.05
2022-11-12T11:26:26.796Z,15.63
2022-11-12T11:29:16.692Z,19.08
2022-11-12T11:32:00.448Z,23.52
2022-11-12T11:35:00.067Z,24.25
2022-11-12T11:37:38.875Z,25.60
2022-11-12T11:40:28.829Z,22.73
2022-11-12T11:43:33.074Z,19.70
2022-11-12T11:46:16.811Z,22.63
2022-11-12T11:49:09.792Z,39.63
2022-11-12T11:52:08.038Z,26.67
2022-11-12T11:55:17.036Z,19.75
2022-11-12T11:58:01.325Z,24.35
2022-11-12T12:01:02.218Z,40.10
2022-11-12T12:04:06.439Z,31.45
2022-11-12T12:06:59.917Z,54.30
2022-11-12T12:09:48.256Z,49.25
2022-11-12T12:12:57.207Z,53.40
2022-11-12T12:15:56.148Z,33.45
2022-11-12T12:18:53.290Z,33.15
2022-11-12T12:21:25.647Z,25.83
2022-11-12T12:24:15.123Z,29.73
2022-11-12T12:27:18.824Z,20.92
2022-11-12T12:29:59.095Z,25.77
2022-11-12T12:32:39.438Z,26.63
2022-11-12T12:35:48.265Z,31.63
2022-11-12T12:38:29.578Z,31.75
2022-11-12T12:41:29.285Z,24.20
2022-11-12T12:44:07.845Z,42.05
2022-11-12T12:46:44.492Z,36.67
2022-11-12T12:49:36.719Z,32.72
2022-11-12T12:52:06.833Z,32.58
2022-11-12T12:54:56.825Z,28.95
2022-11-12T12:57:39.671Z,31.50
2022-11-12T13:00:33.596Z,24.98
2022-11-12T13:03:03.691Z,32.08
2022-11-12T13:05:44.562Z,33.63
2022-11-12T13:08:25.853Z,41.55
2022-11-12T13:10:56.431Z,42.03
2022-11-12T13:13:36.563Z,42.42
2022-11-12T13:16:06.747Z,37.88
2022-11-12T13:18:59.717Z,39.33
2022-11-12T13:21:30.029Z,28.45
2022-11-12T13:24:12.631Z,34.05
2022-11-12T13:26:49.689Z,40.15
2022-11-12T13:29:27.408Z,35.50
2022-11-12T13:32:36.315Z,31.73
2022-11-12T13:35:45.086Z,40.88
2022-11-12T13:38:19.579Z,33.15
2022-11-12T13:41:11.216Z,29.02
2022-11-12T13:43:45.797Z,27.05
2022-11-12T13:46:35.698Z,33.08
2022-11-12T13:49:11.717Z,32.05
2022-11-12T13:51:48.860Z,27.58
2022-11-12T13:54:39.197Z,24.07
2022-11-12T13:57:30.076Z,26.90
2022-11-12T14:00:24.258Z,24.38
2022-11-12T14:03:10.327Z,26.45
2022-11-12T14:05:41.082Z,22.60
2022-11-12T14:08:47.707Z,19.77
2022-11-12T14:11:54.372Z,19.98
2022-11-12T14:14:47.519Z,19.45
2022-11-12T14:17:54.815Z,20.08
2022-11-12T14:20:40.277Z,27.88
2022-11-12T14:23:25.359Z,18.48
2022-11-12T14:25:58.405Z,20.40
2022-11-12T14:28:36.860Z,23.17
2022-11-12T14:31:13.803Z,19.30
2022-11-12T14:33:45.707Z,21.10
2022-11-12T14:36:20.794Z,25.63
2022-11-12T14:38:56.867Z,21.45
2022-11-12T14:41:34.355Z,23.00
2022-11-12T14:44:13.280Z,19.60
2022-11-12T14:46:59.006Z,21.25
2022-11-12T14:49:50.213Z,28.20
2022-11-12T14:52:30.985Z,29.48
2022-11-12T14:55:08.268Z,19.90
2022-11-12T14:57:38.151Z,21.60
2022-11-12T15:00:41.864Z,18.52
2022-11-12T15:03:17.976Z,22.13
2022-11-12T15:06:12.457Z,15.90
2022-11-12T15:08:42.958Z,16.95
2022-11-12T15:11:37.233Z,20.52
2022-11-12T15:14:07.828Z,16.48
2022-11-12T15:16:37.974Z,20.10
2022-11-12T15:19:28.262Z,17.05
2022-11-12T15:22:04.113Z,17.40
2022-11-12T15:24:37.259Z,16.75
2022-11-12T15:27:35.750Z,17.92
2022-11-12T15:30:37.113Z,18.90
2022-11-12T15:33:24.588Z,19.30
2022-11-12T15:36:02.228Z,13.73
2022-11-12T15:38:39.440Z,16.35
2022-11-12T15:41:21.853Z,16.90
2022-11-12T15:43:51.424Z,17.25
2022-11-12T15:46:21.312Z,16.75
2022-11-12T15:48:55.776Z,17.85
2022-11-12T15:51:26.501Z,20.52
2022-11-12T15:53:56.071Z,17.00
2022-11-12T15:56:25.668Z,14.70
2022-11-12T15:58:55.288Z,13.88
2022-11-12T16:01:24.975Z,16.40
2022-11-12T16:03:54.528Z,16.92
2022-11-12T16:06:24.064Z,19.77
2022-11-12T16:08:53.994Z,20.48
2022-11-12T16:11:43.121Z,21.80
2022-11-12T16:14:15.763Z,25.67
2022-11-12T16:16:45.272Z,18.52
2022-11-12T16:19:16.577Z,25.17
2022-11-12T16:21:46.188Z,24.10
2022-11-12T16:24:15.762Z,19.98
2022-11-12T16:26:45.513Z,25.17
2022-11-12T16:29:16.277Z,21.98
2022-11-12T16:31:46.377Z,21.83
2022-11-12T16:34:15.882Z,23.33
2022-11-12T16:36:45.464Z,21.98
2022-11-12T16:39:16.144Z,22.00
2022-11-12T16:41:45.717Z,18.63
2022-11-12T16:44:15.210Z,17.40
2022-11-12T16:46:45.624Z,22.85
2022-11-12T16:49:17.061Z,19.88
2022-11-12T16:51:47.695Z,17.17
2022-11-12T16:54:17.650Z,18.58
2022-11-12T16:56:47.542Z,26.05
2022-11-12T16:59:17.544Z,21.08
2022-11-12T17:01:47.506Z,26.00
2022-11-12T17:04:17.490Z,19.50
2022-11-12T17:06:47.575Z,16.88
2022-11-12T17:09:19.672Z,20.58
2022-11-12T17:11:49.646Z,19.85
2022-11-12T17:14:23.019Z,17.52
2022-11-12T17:16:55.819Z,20.60
2022-11-12T17:19:25.758Z,26.65
2022-11-12T17:21:56.037Z,16.52
2022-11-12T17:24:29.081Z,19.95
2022-11-12T17:26:59.558Z,18.52
2022-11-12T17:29:30.545Z,17.27
2022-11-12T17:32:00.532Z,20.50
2022-11-12T17:34:30.495Z,29.67
2022-11-12T17:37:00.551Z,20.52
2022-11-12T17:39:30.558Z,33.40
2022-11-12T17:42:00.966Z,22.65
2022-11-12T17:44:31.609Z,17.48
2022-11-12T17:47:01.546Z,15.13
2022-11-12T17:49:31.489Z,18.13
2022-11-12T17:52:04.461Z,23.55
2022-11-12T17:54:34.480Z,18.17
2022-11-12T17:57:04.398Z,19.83
2022-11-12T17:59:34.272Z,13.73
2022-11-12T18:02:04.152Z,14.90
2022-11-12T18:04:34.077Z,18.52
2022-11-12T18:07:04.015Z,15.95
2022-11-12T18:09:33.969Z,17.10
2022-11-12T18:12:03.937Z,11.32
2022-11-12T18:14:33.918Z,17.40
2022-11-12T18:17:03.905Z,14.80
2022-11-12T18:19:33.892Z,17.88
2022-11-12T18:22:04.035Z,15.35
2022-11-12T18:24:34.006Z,14.73
2022-11-12T18:27:03.942Z,14.18
2022-11-12T18:29:33.948Z,18.83
2022-11-12T18:32:03.922Z,16.50
2022-11-12T18:34:33.753Z,15.80
2022-11-12T18:37:03.754Z,12.90
2022-11-12T18:39:34.066Z,18.45
2022-11-12T18:42:04.318Z,12.25
2022-11-12T18:44:34.819Z,15.38
2022-11-12T18:47:04.775Z,19.23
2022-11-12T18:49:34.876Z,15.65
2022-11-12T18:52:04.830Z,22.13
2022-11-12T18:54:34.815Z,17.60
2022-11-12T18:57:04.944Z,12.73
2022-11-12T18:59:35.037Z,14.63
2022-11-12T19:02:05.068Z,12.23
2022-11-12T19:04:34.999Z,16.33
2022-11-12T19:07:05.013Z,17.25
2022-11-12T19:09:37.153Z,13.15
2022-11-12T19:12:07.305Z,13.05
2022-11-12T19:14:37.280Z,21.65
2022-11-12T19:17:07.285Z,11.88
2022-11-12T19:19:37.455Z,13.73
2022-11-12T19:22:07.454Z,13.07
2022-11-12T19:24:37.384Z,12.63
2022-11-12T19:27:07.326Z,13.00
2022-11-12T19:29:38.599Z,13.55
2022-11-12T19:32:09.380Z,10.63
2022-11-12T19:34:39.241Z,11.00
2022-11-12T19:39:59.185Z,11.15
2022-11-12T19:42:29.882Z,9.63
2022-11-12T19:44:59.992Z,12.50
2022-11-12T19:47:29.534Z,11.32
2022-11-12T19:49:59.190Z,13.18
2022-11-12T19:52:28.842Z,11.18
2022-11-12T19:54:58.503Z,12.70
2022-11-12T19:57:29.403Z,12.80
2022-11-12T19:59:59.018Z,10.05
2022-11-12T20:02:29.028Z,12.77
2022-11-12T20:04:58.670Z,12.63
2022-11-12T20:07:28.308Z,12.65
2022-11-12T20:10:00.909Z,12.43
2022-11-12T20:12:31.863Z,10.77
2022-11-12T20:15:01.466Z,12.30
2022-11-12T20:17:33.567Z,11.90
2022-11-12T20:20:03.096Z,14.30
2022-11-12T20:22:33.508Z,10.15
2022-11-12T20:25:03.429Z,12.43
2022-11-12T20:27:33.007Z,11.95
2022-11-12T20:30:02.558Z,13.02
2022-11-12T20:32:32.106Z,9.50
2022-11-12T20:35:01.734Z,9.75
2022-11-12T20:37:32.255Z,15.40
2022-11-12T20:40:01.888Z,10.63
2022-11-12T20:42:31.715Z,11.80
2022-11-12T20:45:02.626Z,10.43
2022-11-12T20:47:32.605Z,11.68
2022-11-12T20:50:02.604Z,9.95
2022-11-12T20:52:32.694Z,9.90
2022-11-12T20:55:02.610Z,9.07
2022-11-12T20:57:32.538Z,13.68
2022-11-12T21:00:02.505Z,10.40
2022-11-12T21:02:32.434Z,11.23
2022-11-12T21:05:02.424Z,8.68
2022-11-12T21:07:32.417Z,11.82
2022-11-12T21:10:02.548Z,15.65
2022-11-12T21:12:34.686Z,9.30
2022-11-12T21:15:04.699Z,11.55
2022-11-12T21:17:34.686Z,10.52
2022-11-12T21:20:04.758Z,11.75
2022-11-12T21:22:35.508Z,11.48
2022-11-12T21:25:05.465Z,11.05
2022-11-12T21:27:35.457Z,12.70
2022-11-12T21:30:05.654Z,10.38
2022-11-12T21:32:35.597Z,11.40
2022-11-12T21:35:05.606Z,11.35
2022-11-12T21:37:35.490Z,9.90
2022-11-12T21:40:05.652Z,11.95
2022-11-12T21:42:35.855Z,19.52
2022-11-12T21:45:06.572Z,13.20
2022-11-12T21:47:36.624Z,11.48
2022-11-12T21:50:07.818Z,12.85
2022-11-12T21:52:37.754Z,10.23
2022-11-12T21:55:08.154Z,12.05
2022-11-12T21:57:38.153Z,9.52
2022-11-12T22:00:39.554Z,13.15
2022-11-12T22:02:59.861Z,15.00
2022-11-12T22:05:29.837Z,12.52
2022-11-12T22:07:59.883Z,13.35
2022-11-12T22:10:29.741Z,16.42
2022-11-12T22:15:52.317Z,16.20
2022-11-12T22:18:22.140Z,18.85
2022-11-12T22:21:06.311Z,11.10
2022-11-12T22:23:39.599Z,8.98
2022-11-12T22:26:15.141Z,10.82
2022-11-12T22:28:45.605Z,11.45
2022-11-12T22:31:22.005Z,15.23
2022-11-12T22:33:52.440Z,12.18
2022-11-12T22:36:25.616Z,13.48
2022-11-12T22:38:57.648Z,16.73
2022-11-12T22:41:30.066Z,16.60
2022-11-12T22:44:02.309Z,12.85
2022-11-12T22:46:35.343Z,11.68
2022-11-12T22:49:07.019Z,15.77
2022-11-12T22:51:38.328Z,16.75
2022-11-12T22:54:11.006Z,12.05
2022-11-12T22:56:41.450Z,10.40
2022-11-12T22:59:13.120Z,10.20
2022-11-12T23:01:43.149Z,11.18
2022-11-12T23:04:13.057Z,10.50
2022-11-12T23:06:43.054Z,15.07
2022-11-12T23:09:18.343Z,10.13
2022-11-12T23:11:48.355Z,12.55
2022-11-12T23:14:18.347Z,11.07
2022-11-12T23:16:48.375Z,14.73
2022-11-12T23:19:18.413Z,15.60
2022-11-12T23:21:48.301Z,15.65
2022-11-12T23:24:18.209Z,12.65
2022-11-12T23:26:48.179Z,14.13
2022-11-12T23:29:18.127Z,10.57
2022-11-12T23:31:48.310Z,9.05
2022-11-12T23:34:18.283Z,13.80
2022-11-12T23:36:48.331Z,14.85
2022-11-12T23:39:18.266Z,14.50
2022-11-12T23:41:48.210Z,13.77
2022-11-12T23:44:18.387Z,16.92
2022-11-12T23:46:48.905Z,11.13
2022-11-12T23:49:18.807Z,14.07
2022-11-12T23:51:48.674Z,10.93
2022-11-12T23:54:18.647Z,14.13
2022-11-12T23:56:48.526Z,16.70
2022-11-12T23:59:18.523Z,14.65
